Tiempo atmosférico en la estación meteorológica de Portocolom, Illes Balears (17 m.)



Fecha
DESCASC
Temp. máxima en grados centígrados (hora)
DESCASC
Temp. mínima en grados centígrados (hora)
DESCASC
Temp. media en grados centígrados
DESCASC
Racha de viento máxima en m/sg (hora)
DESCASC
Velocidad máxima media en intervalos de 10 minutos(hora)
DESCASC
Precipitaciones diarias en mm
DESCASC
Precipitaciones de 00:00 a 06:00 en mm
DESCASC
Precipitaciones de 06:00 a 12:00 en mm
DESCASC
Precipitaciones de 12:00 a 18:00 en mm
DESCASC
Precipitaciones de 18:00 a 24:00 en mm
DESCASC
13-10-2019 25.9 (13:50) 22.7 (06:00) 24.3 7.78 (00:40) 4.44 (03:00) 0 0 0 0 0
12-10-2019 25.3 (15:00) 22 (06:30) 23.6 9.17 (00:50) 5 (00:50) 0 0 0 0 0
11-10-2019 24.9 (15:20) 17.2 (06:10) 21.1 8.33 (22:30) 5 (15:20) 0 0 0 0 0
10-10-2019 23.9 (12:40) 19.5 (00:00) 21.7 7.5 (10:50) 5 (13:30) 0 0 0 0 0
09-10-2019 26.1 (13:30) 17.8 (00:00) 21.9 -- (--) -- (--) 0 0 0 0 0
08-10-2019 25.1 (14:50) 16.3 (00:00) 20.7 -- (--) -- (--) 0 0 0 0 0
07-10-2019 25.7 (13:10) 17.5 (00:00) 21.6 -- (--) -- (--) 0 0 0 0 0
06-10-2019 25.6 (12:00) 18.6 (00:00) 22.1 -- (--) -- (--) 0 0 0 0 0
05-10-2019 25.8 (12:20) 18.2 (00:00) 22 -- (--) -- (--) 0 0 0 0 0
04-10-2019 25.5 (15:30) 17 (00:00) 21.3 -- (--) -- (--) 0 0 0 0 0
03-10-2019 27.3 (14:00) 17.4 (00:00) 22.3 -- (--) -- (--) 0 0 0 0 0
02-10-2019 25.5 (14:20) 17.7 (00:00) 21.6 -- (--) -- (--) 0 0 0 0 0
01-10-2019 26.8 (13:20) 20.2 (00:00) 23.5 -- (--) -- (--) 0 0 0 0 0
30-09-2019 27.1 (14:40) 18.9 (00:00) 23 -- (--) -- (--) 0 0 0 0 0
29-09-2019 26.9 (13:50) 20 (00:00) 23.4 -- (--) -- (--) 0 0 0 0 0
28-09-2019 27.3 (13:20) 19.8 (00:00) 23.5 -- (--) -- (--) 0 0 0 0 0
27-09-2019 27.2 (14:10) 19.9 (00:00) 23.6 -- (--) -- (--) 0 0 0 0 0
26-09-2019 26.8 (16:00) 18.6 (00:00) 22.7 -- (--) -- (--) 0 0 0 0 0
25-09-2019 27.3 (12:30) 20.3 (00:00) 23.8 -- (--) -- (--) 0 0 0 0 0
24-09-2019 28 (14:10) 20.5 (00:00) 24.3 -- (--) -- (--) 0 0 0 0 0
23-09-2019 26.2 (14:20) 21.3 (00:00) 23.8 -- (--) -- (--) 0 0 0 0 0
22-09-2019 29.1 (14:30) 23 (00:00) 26.1 -- (--) -- (--) 0 0 0 0 0
21-09-2019 30.4 (16:20) 24 (00:00) 27.2 -- (--) -- (--) 0.4 0 0.4 0 0
20-09-2019 26.5 (12:30) 21 (00:00) 23.8 -- (--) -- (--) 0 0 0 0 0
19-09-2019 27.3 (15:10) 20.8 (00:00) 24 -- (--) -- (--) 0 0 0 0 0
18-09-2019 28.2 (14:30) 20.2 (00:00) 24.2 -- (--) -- (--) 0 0 0 0 0
17-09-2019 28.4 (15:50) 21.4 (00:00) 24.9 -- (--) -- (--) 0 0 0 0 0
16-09-2019 26.5 (11:00) 23.6 (00:00) 25.1 -- (--) -- (--) 0 0 0 0 0

Gráficas

Temp. máximas Temp. mínimas Temp. medias Precipitaciones Rachas de viento máximas Velocidades máximas media en intervalos de 10 minutos

Datos horarios

Fecha y hora oficial Temperatura (ºC) Velocidad del viento (km/h) Dirección del viento Racha (km/h) Dirección de racha Precipitación (mm) Presión (hPa) Tendencia (hPa) Humedad (%)
2019-10-15 23:00:00 16.2 6 Noroeste 13 Noroeste 0 1018.1 1.2 64
2019-10-15 22:00:00 16.7 6 Noroeste 12 Noroeste 0 1017.7 1.7 61
2019-10-15 21:00:00 17.1 8 Norte 13 Noroeste 0 1017.2 1.8 60
2019-10-15 20:00:00 17.8 6 Noroeste 19 Noroeste 0 1016.9 1.9 54
2019-10-15 19:00:00 19.8 16 Noroeste 27 Sudoeste 0 1016 1.4 48
2019-10-15 18:00:00 22.1 12 Oeste 28 Oeste 0 1015.4 0.8 42
2019-10-15 17:00:00 23 14 Noroeste 32 Noroeste 0 1015 0.4 36
2019-10-15 16:00:00 23.4 14 Noroeste 32 Oeste 0 1014.6 -0.3 40
2019-10-15 15:00:00 23.8 10 Oeste 32 Oeste 0 1014.6 0 42
2019-10-15 14:00:00 23.5 9 Noroeste 26 Oeste 0 1014.6 0.6 39
2019-10-15 13:00:00 22.8 14 Noroeste 26 Noroeste 0 1014.9 1.5 40
2019-10-15 12:00:00 21.8 17 Noroeste 30 Norte 0 1014.6 2.4 48
2019-10-15 11:00:00 21.5 8 Noroeste 25 Norte 0 1014 3 52
2019-10-15 10:00:00 20.2 13 Norte 25 Norte 0 1013.4 3.2 64
2019-10-15 09:00:00 19.7 15 Norte 24 Noroeste 0 1012.2 2.7 76
2019-10-15 08:00:00 19.7 14 Noroeste 43 Oeste 0 1011 2 72
2019-10-15 07:00:00 20.3 19 Noroeste 44 Noroeste 0 1010.2 1.4 71
2019-10-15 06:00:00 20.5 16 Oeste 36 Noroeste 0 1009.5 -0.2 80
2019-10-15 05:00:00 20.2 22 Noroeste 37 Oeste 0.2 1009 -0.4 78
2019-10-15 04:00:00 20.9 13 Oeste 31 Noroeste 0 1008.8 -0.9 74
2019-10-15 03:00:00 21.9 17 Oeste 37 Oeste 0 1009.7 -1.1 82
2019-10-15 02:00:00 22.5 15 Oeste 32 Sudoeste 0 1009.4 -1.3 88
2019-10-15 01:00:00 21.8 15 Sur 28 Sur 0 1009.7 -1 82
2019-10-15 00:00:00 22.3 18 Sur 27 Sur 0 1010.8 0 86
2019-10-14 23:00:00 22.5 9 Sudeste 29 Este 0 1010.7 0.4 84
2019-10-14 22:00:00 22.4 13 Este 25 Este 1.2 1010.7 0.8 86
2019-10-14 21:00:00 22.4 16 Este 30 Noroeste 11.2 1010.8 1.4 91
2019-10-14 20:00:00 23.7 9 Este 13 Nordeste 0 1010.3 1.2 86
2019-10-14 19:00:00 23.9 3 Noroeste 18 Sudoeste 0 1009.9 -0.3 82
2019-10-14 18:00:00 24.7 16 Sudoeste 19 Sudoeste 0 1009.4 -1.2 83
2019-10-14 17:00:00 25 9 Sur 15 Sur 0 1009.1 -1.9 82
2019-10-14 16:00:00 25.5 11 Sur 21 Sur 0 1010.2 -1.6 83
2019-10-14 15:00:00 26.4 17 Sur 22 Sudoeste 0 1010.6 -1.9 80
2019-10-14 14:00:00 26.3 10 Sur 20 Sudeste 0 1011 -2 78
2019-10-14 13:00:00 26.7 7 Sudeste 13 Sudeste 0 1011.8 -1.1 75
2019-10-14 12:00:00 25.4 6 Este 10 Nordeste 0 1012.5 -0.1 81
2019-10-14 11:00:00 24.7 4 Sudeste 8 Este 0 1013 0.9 84
2019-10-14 10:00:00 22.3 5 Norte 12 Norte 0 1012.9 0.5 93
2019-10-14 09:00:00 20.7 7 Nordeste 14 Nordeste 0 1012.6 0.2 95
2019-10-14 08:00:00 19.3 8 Nordeste 12 Nordeste 0 1012.1 -0.7 94
2019-10-14 07:00:00 19.3 9 Norte 11 Norte 0 1012.4 -0.7 95
2019-10-14 06:00:00 19.8 8 Norte 9 Norte 0 1012.4 -1.1 94
2019-10-14 05:00:00 20.3 6 Norte 8 Norte 0 1012.8 -0.8 93
2019-10-14 04:00:00 21.6 4 Noroeste 12 Oeste 0 1013.1 -0.7 89
2019-10-14 03:00:00 22.6 7 Oeste 26 Sudoeste 0 1013.5 -0.6 88
2019-10-14 02:00:00 22.9 14 Sudoeste 17 Sudoeste 0 1013.6 -0.7 90
2019-10-14 01:00:00 23.1 13 Sudoeste 17 Sur 0 1013.8 -0.5 91
2019-10-14 00:00:00 23.1 15 Sudoeste 18 Sudoeste 0 1014.1 0 90
2019-10-13 23:00:00 23.3 5 Sudeste 12 Este 0 1014.3 0.2 91
2019-10-13 22:00:00 23.5 8 Este 18 Este 0 1014.3 0.6 92
2019-10-13 21:00:00 23.5 10 Este 19 Este 0 1014.1 0.4 92
2019-10-13 20:00:00 23.6 12 Este 19 Este 0 1014.1 0.5 92
2019-10-13 19:00:00 23.9 11 Este 18 Este 0 1013.7 -0.1 90
2019-10-13 18:00:00 24.2 9 Este 18 Este 0 1013.7 -0.6 87
2019-10-13 17:00:00 24.7 10 Sudeste 20 Sudeste 0 1013.6 -1.2 84
2019-10-13 16:00:00 25.4 11 Sudeste 20 Sudeste 0 1013.8 -1.4 81
2019-10-13 15:00:00 25.2 11 Sudeste 23 Este 0 1014.3 -1.2 80
2019-10-13 14:00:00 25.4 12 Sudeste 24 Este 0 1014.8 -0.5 78
2019-10-13 13:00:00 24.6 14 Este 23 Este 0 1015.2 0.1 80
2019-10-13 12:00:00 24.7 14 Este 23 Este 0 1015.5 0.5 80
2019-10-13 11:00:00 24.4 13 Este 22 Este 0 1015.3 0.8 80
2019-10-13 10:00:00 24.1 12 Este 23 Sudeste 0 1015.1 0.5 81
2019-10-13 09:00:00 22.9 11 Este 19 Este 0 1015 0.5 85
2019-10-13 08:00:00 22.8 10 Este 20 Sudeste 0 1014.5 -0.3 86
2019-10-13 07:00:00 22.8 9 Este 16 Este 0 1014.6 -0.6 85
2019-10-13 06:00:00 22.7 7 Sudeste 20 Sudeste 0 1014.5 -1.2 83
2019-10-13 05:00:00 22.9 10 Sudeste 22 Sudeste 0 1014.8 -1.1 83
2019-10-13 04:00:00 23 11 Sur 22 Sur 0 1015.2 -1 83
2019-10-13 03:00:00 23 16 Sur 28 Sur 0 1015.7 -0.9 83
2019-10-13 02:00:00 23 13 Sudeste 28 Sur 0 1015.9 -0.9 83
2019-10-13 01:00:00 23.1 13 Sur 28 Sudeste 0 1016.2 -0.5 85
2019-10-13 00:00:00 22.9 14 Sudeste 25 Sudeste 0 1016.6 0.1 85
2019-10-12 23:00:00 22.9 12 Sudeste 22 Sudeste 0 1016.8 0.4 84
2019-10-12 22:00:00 22.9 12 Sudeste 19 Sudeste 0 1016.7 0.2 83
2019-10-12 21:00:00 22.9 13 Sudeste 24 Sudeste 0 1016.5 0.2 81
2019-10-12 20:00:00 23.1 10 Sudeste 23 Sur 0 1016.4 0.1 83
2019-10-12 19:00:00 23.3 10 Sudeste 22 Sudeste 0 1016.5 -0.4 81
2019-10-12 18:00:00 23.7 11 Sudeste 24 Sudeste 0 1016.3 -0.7 78
2019-10-12 17:00:00 24.4 10 Sudeste 22 Sudeste 0 1016.3 -1.5 77
2019-10-12 16:00:00 24.9 11 Sudeste 26 Sudeste 0 1016.9 -1.6 72
2019-10-12 15:00:00 24.6 14 Sudeste 27 Sudeste 0 1017 -1.5 71
2019-10-12 14:00:00 24.7 13 Sudeste 28 Sudeste 0 1017.8 -0.6 72
2019-10-12 13:00:00 24.9 13 Sudeste 25 Sudeste 0 1018.5 0.5 70
2019-10-12 12:00:00 24.8 13 Sudeste 24 Sudeste 0 1018.5 0.8 72
2019-10-12 11:00:00 24.3 14 Sudeste 26 Sudeste 0 1018.4 0.9 72
2019-10-12 10:00:00 23 12 Sudeste 23 Sudeste 0 1018 0.6 76
2019-10-12 09:00:00 22.5 11 Sudeste 22 Sudeste 0 1017.7 0.6 79
2019-10-12 08:00:00 22.2 12 Sudeste 23 Sudeste 0 1017.5 0 79
2019-10-12 07:00:00 22.1 14 Sudeste 26 Sudeste 0 1017.4 0 80
2019-10-12 06:00:00 22.2 12 Sudeste 28 Sudeste 0 1017.1 -0.9 78
2019-10-12 05:00:00 22.3 16 Sudeste 32 Sudeste 0 1017.5 -0.9 75
2019-10-12 04:00:00 22.4 17 Sudeste 33 Sudeste 0 1017.4 -1.3 74
2019-10-12 03:00:00 22.5 16 Sudeste 31 Sudeste 0 1018 -0.9 76
2019-10-12 02:00:00 22.5 17 Sudeste 32 Sudeste 0 1018.4 -0.8 76
2019-10-12 01:00:00 22.6 15 Sudeste 33 Sudeste 0 1018.7 -0.1 76
2019-10-12 00:00:00 22.7 13 Sudeste 29 Sudeste 0 1018.9 0.1 78
2019-10-11 23:00:00 22.6 15 Sudeste 30 Sudeste 0 1019.2 0.7 77
2019-10-11 22:00:00 22.6 13 Sudeste 27 Sudeste 0 1018.8 0.5 78
2019-10-11 21:00:00 22.7 10 Sudeste 23 Sur 0 1018.8 0.2 79
2019-10-11 20:00:00 22.7 12 Sur 23 Sudeste 0 1018.5 -0.3 78
2019-10-11 19:00:00 22.9 10 Sudeste 23 Sudeste 0 1018.3 -0.8 76
2019-10-11 18:00:00 23.6 13 Sur 22 Sur 0 1018.6 -0.9 72
2019-10-11 17:00:00 24 14 Sur 22 Sur 0 1018.8 -1.3 72
2019-10-11 16:00:00 24.6 15 Sur 22 Sur 0 1019.1 -1.8 68
2019-10-11 15:00:00 24.8 14 Sur 22 Sur 0 1019.5 -1.6 67
2019-10-11 14:00:00 24.7 13 Sur 23 Sur 0 1020.1 -0.9 68
2019-10-11 13:00:00 24.2 17 Sur 23 Sur 0 1020.9 0 68
2019-10-11 12:00:00 24.1 13 Sur 19 Sudeste 0 1021.1 0.7 69
2019-10-11 11:00:00 23.7 8 Sudeste 17 Sudeste 0 1021 1.2 72
2019-10-11 10:00:00 21 5 Norte 10 Norte 0 1020.9 1.2 84
2019-10-11 09:00:00 18.6 8 Norte 12 Norte 0 1020.4 0.7 87
2019-10-11 08:00:00 17.5 9 Norte 11 Norte 0 1019.8 0.3 90
2019-10-11 07:00:00 17.5 8 Norte 12 Norte 0 1019.7 0.1 89
2019-10-11 06:00:00 17.3 10 Norte 12 Norte 0 1019.7 -0.3 88
2019-10-11 05:00:00 17.6 7 Norte 9 Norte 0 1019.5 -0.7 87
2019-10-11 04:00:00 17.7 8 Norte 10 Norte 0 1019.6 -0.7 86
2019-10-11 03:00:00 17.9 6 Norte 10 Norte 0 1020 -0.5 84
2019-10-11 02:00:00 18 9 Norte 12 Norte 0 1020.2 -0.5 83
2019-10-11 01:00:00 19.8 5 Sudoeste 15 Sur 0 1020.3 -0.2 76
2019-10-11 00:00:00 21.2 8 Sur 15 Sur 0 1020.5 0.7 73
2019-10-10 23:00:00 21.2 8 Sudeste 15 Sudeste 0 1020.7 1.3 72
2019-10-10 22:00:00 21.2 8 Sudeste 17 Sudeste 0 1020.5 1.3 71
2019-10-10 21:00:00 21.1 10 Sudeste 17 Sudeste 0 1019.8 0.9 71
2019-10-10 20:00:00 21.2 8 Sudeste 19 Sudeste 0 1019.4 0.3 71
2019-10-10 19:00:00 21.7 12 Este 20 Este 0 1019.2 0 69
2019-10-10 18:00:00 22.7 12 Este 24 Sudeste 0 1018.9 -0.6 65
2019-10-10 17:00:00 23 13 Sudeste 22 Este 0 1019.1 -0.6 63
2019-10-10 16:00:00 23.3 14 Este 27 Este 0 1019.2 -0.8 59
2019-10-10 15:00:00 22.6 12 Este 23 Este 0 1019.5 -0.4 63
2019-10-10 14:00:00 22.6 13 Este 27 Este 0 1019.7 -0.4 65
2019-10-10 13:00:00 22.7 14 Este 25 Este 0 1020 0.3 70
2019-10-10 12:00:00 23.4 13 Este 25 Este 0 1019.9 1.5 68
2019-10-10 11:00:00 22.5 15 Este 27 Nordeste 0 1020.1 2.3 71
2019-10-10 10:00:00 22 15 Este 24 Este 0 1019.7 2.2 74
2019-10-10 09:00:00 22 13 Este 25 Este 0 1018.4 1.1 75
2019-10-10 08:00:00 21.8 14 Este 24 Este 0 1017.8 0.6 78
2019-10-10 07:00:00 21.6 12 Este 22 Este 0 1017.5 0.4 79
2019-10-10 06:00:00 19.7 8 Norte 12 Norte 0 1017.3 -0.2 82
2019-10-10 05:00:00 21.1 6 Nordeste 21 Este 0 1017.2 -0.5 74
2019-10-10 04:00:00 21.8 10 Este 20 Este 0 1017.1 -0.3 72
2019-10-10 03:00:00 21.8 9 Este 17 Este 0 1017.5 0.4 71
2019-10-10 02:00:00 22 10 Este 19 Este 0 1017.7 0.7 68
2019-10-10 01:00:00 22.1 12 Este 18 Nordeste 0 1017.4 0.9 69
2019-10-10 00:00:00 22 9 Este 16 Este 0 1017.1 0.8 73
2019-10-09 23:00:00 22.2 10 Este 17 Este 0 1017 1 75
2019-10-09 22:00:00 22.3 8 Sudeste 13 Sudeste 0 1016.5 1.2 74
2019-10-09 21:00:00 22.5 5 Sudeste 10 Este 0 1016.3 1.5 72
2019-10-09 20:00:00 22.7 4 Sur 11 Sur 0 1016 1.5 71
2019-10-09 19:00:00 23 12 Sur 20 Sur 0 1015.3 0.7 70
2019-10-09 18:00:00 24.4 16 Sudoeste 24 Sur 0 1014.8 -0.1 67
2019-10-09 17:00:00 25.2 17 Sudoeste 24 Sudoeste 0 1014.5 -0.9 64
2019-10-09 16:00:00 25.2 18 Sur 24 Sudoeste 0 1014.6 -1.5 63
2019-10-09 15:00:00 24.9 19 Sur 23 Sur 0 1014.9 -1.2 63
2019-10-09 14:00:00 25.7 14 Sur -- -- 0 1015.4 -0.8 61
2019-10-09 13:00:00 25.6 -- -- -- -- 0 1016.1 0.1 59
2019-10-09 12:00:00 25 -- -- -- -- 0 1016.1 0.4 60
2019-10-09 11:00:00 24.7 -- -- -- -- 0 1016.2 0.8 61
2019-10-09 10:00:00 23.7 -- -- -- -- 0 1016 0.4 65
2019-10-09 09:00:00 19 -- -- -- -- 0 1015.7 0.2 77
2019-10-09 08:00:00 18.2 -- -- -- -- 0 1015.4 -0.2 76
2019-10-09 07:00:00 18.2 -- -- -- -- 0 1015.6 0 75
2019-10-09 06:00:00 18.8 -- -- -- -- 0 1015.5 -0.5 74
2019-10-09 05:00:00 21.5 -- -- -- -- 0 1015.6 -0.7 67
2019-10-09 04:00:00 21.7 -- -- -- -- 0 1015.6 -0.8 68
2019-10-09 03:00:00 21.7 -- -- -- -- 0 1016 -0.8 68
2019-10-09 02:00:00 21.8 -- -- -- -- 0 1016.3 -0.4 69
2019-10-09 01:00:00 21.3 -- -- -- -- 0 1016.4 -0.3 67
2019-10-09 00:00:00 19.6 -- -- -- -- 0 1016.8 0.1 70
2019-10-08 23:00:00 19.6 -- -- -- -- 0 1016.7 0.3 68
2019-10-08 22:00:00 20.5 -- -- -- -- 0 1016.7 0.6 64
2019-10-08 21:00:00 20.6 -- -- -- -- 0 1016.7 0.7 66
2019-10-08 20:00:00 21.5 -- -- -- -- 0 1016.4 0.2 65
2019-10-08 19:00:00 22.6 -- -- -- -- 0 1016.1 -0.6 62
2019-10-08 18:00:00 23.6 -- -- -- -- 0 1016 -1.4 62
2019-10-08 17:00:00 24.4 -- -- -- -- 0 1016.2 -1.6 59
2019-10-08 16:00:00 24.8 -- -- -- -- 0 1016.7 -1.8 57
2019-10-08 15:00:00 25 -- -- -- -- 0 1017.4 -1.5 55
2019-10-08 14:00:00 24.3 -- -- -- -- 0 1017.8 -0.9 55
2019-10-08 13:00:00 24.2 -- -- -- -- 0 1018.5 0 53
2019-10-08 12:00:00 24.5 -- -- -- -- 0 1018.9 0.8 53
2019-10-08 11:00:00 23.6 -- -- -- -- 0 1018.7 1.3 53
2019-10-08 10:00:00 21.7 -- -- -- -- 0 1018.5 1.6 59
2019-10-08 09:00:00 18.3 -- -- -- -- 0 1018.1 1.6 70
2019-10-08 08:00:00 16.9 -- -- -- -- 0 1017.4 1 74
2019-10-08 07:00:00 17.2 -- -- -- -- 0 1016.9 0.6 71
2019-10-08 06:00:00 16.9 -- -- -- -- 0 1016.5 0 69
2019-10-08 05:00:00 16.6 -- -- -- -- 0 1016.4 -0.3 69
2019-10-08 04:00:00 16.6 -- -- -- -- 0 1016.3 -0.3 68
2019-10-08 03:00:00 16.8 -- -- -- -- 0 1016.5 -0.2 65
2019-10-08 02:00:00 17.6 -- -- -- -- 0 1016.7 0 63
2019-10-08 01:00:00 17 -- -- -- -- 0 1016.6 0.4 73
2019-10-08 00:00:00 17.5 -- -- -- -- 0 1016.7 1.3 75
2019-10-07 23:00:00 18.1 -- -- -- -- 0 1016.7 1.8 73
2019-10-07 22:00:00 18.3 -- -- -- -- 0 1016.2 1.8 74
2019-10-07 21:00:00 19.3 -- -- -- -- 0 1015.4 1.8 72
2019-10-07 20:00:00 20.3 -- -- -- -- 0 1014.9 2 66
2019-10-07 19:00:00 21.5 -- -- -- -- 0 1014.4 1.4 62
2019-10-07 18:00:00 22.4 -- -- -- -- 0 1013.6 0.8 58
2019-10-07 17:00:00 23.8 -- -- -- -- 0 1012.9 0.1 51
2019-10-07 16:00:00 22.7 -- -- -- -- 0 1013 -0.1 55
2019-10-07 15:00:00 23.3 -- -- -- -- 0 1012.8 -0.5 46
2019-10-07 14:00:00 23.9 -- -- -- -- 0 1012.8 -0.6 40
2019-10-07 13:00:00 25.2 -- -- -- -- 0 1013.1 0 39
2019-10-07 12:00:00 23.6 -- -- -- -- 0 1013.3 0.8 48
2019-10-07 11:00:00 22.4 -- -- -- -- 0 1013.4 2 54
2019-10-07 10:00:00 20.9 -- -- -- -- 0 1013.1 1.9 65
2019-10-07 09:00:00 20.2 -- -- -- -- 0 1012.5 1.6 72
2019-10-07 08:00:00 19.6 -- -- -- -- 0 1011.4 0.2 66
2019-10-07 07:00:00 20.4 -- -- -- -- 0 1011.2 -0.6 64
2019-10-07 06:00:00 21 -- -- -- -- 0 1010.9 -1.7 71
2019-10-07 05:00:00 19.4 -- -- -- -- 0 1011.2 -2.1 79
2019-10-07 04:00:00 20.1 -- -- -- -- 0 1011.8 -1.8 78
2019-10-07 03:00:00 19.6 -- -- -- -- 0 1012.6 -1.5 84
2019-10-07 02:00:00 19.9 -- -- -- -- 0 1013.3 -0.9 83
2019-10-07 01:00:00 20.1 -- -- -- -- 0 1013.6 -0.6 87
2019-10-07 00:00:00 19.5 -- -- -- -- 0 1014.1 0.1 90
2019-10-06 23:00:00 19.9 -- -- -- -- 0 1014.2 0.5 90
2019-10-06 22:00:00 20.8 -- -- -- -- 0 1014.2 0.5 88
2019-10-06 21:00:00 22.1 -- -- -- -- 0 1014 0.1 85
2019-10-06 20:00:00 22.8 -- -- -- -- 0 1013.7 -0.3 81
2019-10-06 19:00:00 23.2 -- -- -- -- 0 1013.7 -1.3 82
2019-10-06 18:00:00 23.2 -- -- -- -- 0 1013.9 -1.3 78
2019-10-06 17:00:00 23.4 -- -- -- -- 0 1014 -1.6 76
2019-10-06 16:00:00 24.2 -- -- -- -- 0 1015 -1.1 71
2019-10-06 15:00:00 23.8 -- -- -- -- 0 1015.2 -1 73
2019-10-06 14:00:00 24.9 -- -- -- -- 0 1015.6 0.2 71
2019-10-06 13:00:00 24 -- -- -- -- 0 1016.1 0.8 75
2019-10-06 12:00:00 25.4 -- -- -- -- 0 1016.2 1.3 71
2019-10-06 11:00:00 24.6 -- -- -- -- 0 1015.4 1 71
2019-10-06 10:00:00 23.4 -- -- -- -- 0 1015.3 1.1 78
2019-10-06 09:00:00 20.5 -- -- -- -- 0 1014.9 1.1 89
2019-10-06 08:00:00 18.8 -- -- -- -- 0 1014.4 0.4 92
2019-10-06 07:00:00 18.6 -- -- -- -- 0 1014.2 0.3 93
2019-10-06 06:00:00 19.6 -- -- -- -- 0 1013.8 -0.2 91
2019-10-06 05:00:00 19.8 -- -- -- -- 0 1014 -0.2 91
2019-10-06 04:00:00 19.9 -- -- -- -- 0 1013.9 -0.3 90
2019-10-06 03:00:00 20.2 -- -- -- -- 0 1014 -0.2 89
2019-10-06 02:00:00 20.9 -- -- -- -- 0 1014.2 0 86
2019-10-06 01:00:00 22 -- -- -- -- 0 1014.2 0.3 83
2019-10-06 00:00:00 22.9 -- -- -- -- 0 1014.2 0.6 82
2019-10-05 23:00:00 23 -- -- -- -- 0 1014.2 1 81
2019-10-05 22:00:00 22.9 -- -- -- -- 0 1013.9 0.9 81
2019-10-05 21:00:00 22.9 -- -- -- -- 0 1013.6 0.6 81
2019-10-05 20:00:00 22.9 -- -- -- -- 0 1013.2 0.1 80
2019-10-05 19:00:00 23.2 -- -- -- -- 0 1013 -0.1 78
2019-10-05 18:00:00 23.5 -- -- -- -- 0 1013 -0.4 75
2019-10-05 17:00:00 24.3 -- -- -- -- 0 1013.1 -0.6 71
2019-10-05 16:00:00 25 -- -- -- -- 0 1013.1 -0.7 68
2019-10-05 15:00:00 23.8 -- -- -- -- 0 1013.4 -0.2 74
2019-10-05 14:00:00 24.4 -- -- -- -- 0 1013.7 0.4 71
2019-10-05 13:00:00 25.1 -- -- -- -- 0 1013.8 0.7 71
2019-10-05 12:00:00 25.4 -- -- -- -- 0 1013.6 1 72
2019-10-05 11:00:00 24.5 -- -- -- -- 0 1013.3 1.2 76
2019-10-05 10:00:00 22.3 -- -- -- -- 0 1013.1 0.9 87
2019-10-05 09:00:00 19.5 -- -- -- -- 0 1012.6 0.2 92
2019-10-05 08:00:00 18.6 -- -- -- -- 0 1012.1 -0.2 93
2019-10-05 07:00:00 18.9 -- -- -- -- 0 1012.2 0 93
2019-10-05 06:00:00 19 -- -- -- -- 0 1012.4 -0.2 92
2019-10-05 05:00:00 18.8 -- -- -- -- 0 1012.3 -0.5 92
2019-10-05 04:00:00 19.7 -- -- -- -- 0 1012.2 -0.8 88
2019-10-05 03:00:00 20.7 -- -- -- -- 0 1012.6 -0.7 86
2019-10-05 02:00:00 21 -- -- -- -- 0 1012.8 -0.1 83
2019-10-05 01:00:00 21.2 -- -- -- -- 0 1013 -0.2 80
2019-10-05 00:00:00 21.3 -- -- -- -- 0 1013.3 0.1 77
2019-10-04 23:00:00 21.4 -- -- -- -- 0 1012.9 -0.1 75
2019-10-04 22:00:00 21.5 -- -- -- -- 0 1013.2 0.1 73
2019-10-04 21:00:00 21.7 -- -- -- -- 0 1013.2 0 72
2019-10-04 20:00:00 22.4 -- -- -- -- 0 1013 -0.3 72
2019-10-04 19:00:00 23.5 -- -- -- -- 0 1013.1 -0.8 70
2019-10-04 18:00:00 24.4 -- -- -- -- 0 1013.2 -1.1 65
2019-10-04 17:00:00 25 -- -- -- -- 0 1013.3 -1.5 65
2019-10-04 16:00:00 25.3 -- -- -- -- 0 1013.9 -1.8 62
2019-10-04 15:00:00 25.4 -- -- -- -- 0 1014.3 -1.6 62
2019-10-04 14:00:00 25.4 -- -- -- -- 0 1014.8 -1.1 61
2019-10-04 13:00:00 25.2 -- -- -- -- 0 1015.7 0 59
2019-10-04 12:00:00 24.7 -- -- -- -- 0 1015.9 1 58
2019-10-04 11:00:00 24 -- -- -- -- 0 1015.9 1.4 62
2019-10-04 10:00:00 22 -- -- -- -- 0 1015.7 1.4 80
2019-10-04 09:00:00 19 -- -- -- -- 0 1014.9 0.6 86
2019-10-04 08:00:00 17.4 -- -- -- -- 0 1014.5 0.1 90
2019-10-04 07:00:00 17.2 -- -- -- -- 0 1014.3 -0.1 90
2019-10-04 06:00:00 17.2 -- -- -- -- 0 1014.3 -0.1 89
2019-10-04 05:00:00 18.3 -- -- -- -- 0 1014.4 -0.3 87
2019-10-04 04:00:00 18 -- -- -- -- 0 1014.4 -0.3 88
2019-10-04 03:00:00 18.3 -- -- -- -- 0 1014.4 -0.3 89
2019-10-04 02:00:00 18.2 -- -- -- -- 0 1014.7 -0.2 87
2019-10-04 01:00:00 17.9 -- -- -- -- 0 1014.7 0 87
2019-10-04 00:00:00 18.4 -- -- -- -- 0 1014.7 0.5 86
2019-10-03 23:00:00 18.8 -- -- -- -- 0 1014.9 1.4 84
2019-10-03 22:00:00 19.9 -- -- -- -- 0 1014.7 1.3 80
2019-10-03 21:00:00 21.4 -- -- -- -- 0 1014.2 1 75
2019-10-03 20:00:00 21.6 -- -- -- -- 0 1013.5 0.5 75
2019-10-03 19:00:00 22.3 -- -- -- -- 0 1013.4 0.5 73
2019-10-03 18:00:00 23.3 -- -- -- -- 0 1013.2 0.4 69
2019-10-03 17:00:00 23.7 -- -- -- -- 0 1013 0.1 68
2019-10-03 16:00:00 24.3 -- -- -- -- 0 1012.9 -0.6 67
2019-10-03 15:00:00 23.5 -- -- -- -- 0 1012.8 -1.2 70
2019-10-03 14:00:00 27.2 -- -- -- -- 0 1012.9 -1.2 51
2019-10-03 13:00:00 25.9 -- -- -- -- 0 1013.5 -0.3 58
2019-10-03 12:00:00 24.6 -- -- -- -- 0 1014 0.7 61
2019-10-03 11:00:00 23.3 -- -- -- -- 0 1014.1 1 69
2019-10-03 10:00:00 22.1 -- -- -- -- 0 1013.8 0.8 73
2019-10-03 09:00:00 19.6 -- -- -- -- 0 1013.3 0.5 78
2019-10-03 08:00:00 18 -- -- -- -- 0 1013.1 0.2 82
2019-10-03 07:00:00 18.3 -- -- -- -- 0 1013 0.2 82
2019-10-03 06:00:00 18 -- -- -- -- 0 1012.8 -0.6 83
2019-10-03 05:00:00 17.6 -- -- -- -- 0 1012.9 -0.7 84
2019-10-03 04:00:00 17.9 -- -- -- -- 0 1012.8 -0.8 85
2019-10-03 03:00:00 18.2 -- -- -- -- 0 1013.4 -0.4 86
2019-10-03 02:00:00 18.2 -- -- -- -- 0 1013.6 0.2 86
2019-10-03 01:00:00 17.9 -- -- -- -- 0 1013.6 0.7 87
2019-10-03 00:00:00 17.8 -- -- -- -- 0 1013.8 1.8 88
2019-10-02 23:00:00 18 -- -- -- -- 0 1013.4 1.9 86
2019-10-02 22:00:00 18.6 -- -- -- -- 0 1012.9 1.6 85
2019-10-02 21:00:00 19.5 -- -- -- -- 0 1012 1.1 83
2019-10-02 20:00:00 20 -- -- -- -- 0 1011.5 0.9 80
2019-10-02 19:00:00 20.7 -- -- -- -- 0 1011.3 0.5 77
2019-10-02 18:00:00 22.2 -- -- -- -- 0 1010.9 0.6 73
2019-10-02 17:00:00 22.1 -- -- -- -- 0 1010.6 0 72
2019-10-02 16:00:00 22.1 -- -- -- -- 0 1010.8 0.2 77
2019-10-02 15:00:00 24.2 -- -- -- -- 0 1010.3 0 63
2019-10-02 14:00:00 23.7 -- -- -- -- 0 1010.6 0.4 63
2019-10-02 13:00:00 22.7 -- -- -- -- 0 1010.6 0.8 68
2019-10-02 12:00:00 23.4 -- -- -- -- 0 1010.3 1.2 59
2019-10-02 11:00:00 24.5 -- -- -- -- 0 1010.2 1.5 57
2019-10-02 10:00:00 23.4 -- -- -- -- 0 1009.8 1.6 63
2019-10-02 09:00:00 23.1 -- -- -- -- 0 1009.1 1.3 66
2019-10-02 08:00:00 22.6 -- -- -- -- 0 1008.7 1.1 70
2019-10-02 07:00:00 22.7 -- -- -- -- 0 1008.2 0.8 69
2019-10-02 06:00:00 22.6 -- -- -- -- 0 1007.8 0.1 77
2019-10-02 05:00:00 22.2 -- -- -- -- 0 1007.6 -0.4 87
2019-10-02 04:00:00 21 -- -- -- -- 0 1007.4 -0.1 90
2019-10-02 03:00:00 21.3 -- -- -- -- 0 1007.7 0.2 90
2019-10-02 02:00:00 21.8 -- -- -- -- 0 1008 0.4 90
2019-10-02 01:00:00 21.9 -- -- -- -- 0 1007.5 0.3 88
2019-10-02 00:00:00 22.3 -- -- -- -- 0 1007.5 0.4 88
2019-10-01 23:00:00 22.2 -- -- -- -- 0 1007.6 0.6 88
2019-10-01 22:00:00 22.4 -- -- -- -- 0 1007.2 -0.1 87
2019-10-01 21:00:00 22.7 -- -- -- -- 0 1007.1 0.1 85
2019-10-01 20:00:00 23.5 -- -- -- -- 0 1007 -0.3 81
2019-10-01 19:00:00 24.9 -- -- -- -- 0 1007.3 -0.6 71
2019-10-01 18:00:00 25.5 -- -- -- -- 0 1007 -1.4 78
2019-10-01 17:00:00 26.1 -- -- -- -- 0 1007.3 -1.8 75
2019-10-01 16:00:00 26.4 -- -- -- -- 0 1007.9 -1.9 75
2019-10-01 15:00:00 26.7 -- -- -- -- 0 1008.4 -2.1 75
2019-10-01 14:00:00 26.6 -- -- -- -- 0 1009.1 -1.7 75
2019-10-01 13:00:00 26.6 -- -- -- -- 0 1009.8 -0.9 74
2019-10-01 12:00:00 26.2 -- -- -- -- 0 1010.5 0.1 75
2019-10-01 11:00:00 25.1 -- -- -- -- 0 1010.8 0.3 77
2019-10-01 10:00:00 23.8 -- -- -- -- 0 1010.7 0.1 82
2019-10-01 09:00:00 21.7 -- -- -- -- 0 1010.4 -0.4 89
2019-10-01 08:00:00 20.4 -- -- -- -- 0 1010.5 -0.6 93
2019-10-01 07:00:00 20.6 -- -- -- -- 0 1010.6 -1.1 92
2019-10-01 06:00:00 20.9 -- -- -- -- 0 1010.8 -1.5 91
2019-10-01 05:00:00 21.7 -- -- -- -- 0 1011.1 -1.4 89
2019-10-01 04:00:00 22.3 -- -- -- -- 0 1011.7 -1.1 88
2019-10-01 03:00:00 22.1 -- -- -- -- 0 1012.3 -0.7 89
2019-10-01 02:00:00 21.8 -- -- -- -- 0 1012.5 -0.6 90
2019-10-01 01:00:00 22 -- -- -- -- 0 1012.8 -0.5 90
2019-10-01 00:00:00 22 -- -- -- -- 0 1013 -0.2 89
2019-09-30 23:00:00 22.1 -- -- -- -- 0 1013.1 0.1 87
2019-09-30 22:00:00 22.3 -- -- -- -- 0 1013.3 0.4 86
2019-09-30 21:00:00 23 -- -- -- -- 0 1013.2 0.3 84
2019-09-30 20:00:00 23.7 -- -- -- -- 0 1013 -0.3 83
2019-09-30 19:00:00 24.6 -- -- -- -- 0 1012.9 -1 78
2019-09-30 18:00:00 25.6 -- -- -- -- 0 1012.9 -1.5 74
2019-09-30 17:00:00 26.4 -- -- -- -- 0 1013.3 -1.8 72
2019-09-30 16:00:00 26.7 -- -- -- -- 0 1013.9 -1.6 70
2019-09-30 15:00:00 26.9 -- -- -- -- 0 1014.4 -1.3 70
2019-09-30 14:00:00 26.7 -- -- -- -- 0 1015.1 -0.6 70
2019-09-30 13:00:00 25.7 -- -- -- -- 0 1015.5 0.1 73
2019-09-30 12:00:00 25.6 -- -- -- -- 0 1015.7 0.8 75
2019-09-30 11:00:00 24.9 -- -- -- -- 0 1015.7 1.2 78
2019-09-30 10:00:00 23.3 -- -- -- -- 0 1015.4 1.3 85
2019-09-30 09:00:00 20.5 -- -- -- -- 0 1014.9 0.8 93
2019-09-30 08:00:00 19 -- -- -- -- 0 1014.5 0.5 94
2019-09-30 07:00:00 19.9 -- -- -- -- 0 1014.1 -0.1 94
2019-09-30 06:00:00 19.9 -- -- -- -- 0 1014.1 -0.6 94
2019-09-30 05:00:00 20.3 -- -- -- -- 0 1014 -0.8 92
2019-09-30 04:00:00 21.4 -- -- -- -- 0 1014.2 -0.6 91
2019-09-30 03:00:00 21.8 -- -- -- -- 0 1014.7 -0.2 91
2019-09-30 02:00:00 22 -- -- -- -- 0 1014.8 0 90
2019-09-30 01:00:00 22 -- -- -- -- 0 1014.8 0.1 90
2019-09-30 00:00:00 22 -- -- -- -- 0 1014.9 0.4 90
2019-09-29 23:00:00 22.3 -- -- -- -- 0 1014.8 0.6 88
2019-09-29 22:00:00 22.5 -- -- -- -- 0 1014.7 0.6 87
2019-09-29 21:00:00 22.9 -- -- -- -- 0 1014.5 0.2 85
2019-09-29 20:00:00 23.6 -- -- -- -- 0 1014.2 -0.4 83
2019-09-29 19:00:00 24.7 -- -- -- -- 0 1014.1 -0.7 80
2019-09-29 18:00:00 25.6 -- -- -- -- 0 1014.3 -1 77
2019-09-29 17:00:00 26.1 -- -- -- -- 0 1014.6 -1.2 74
2019-09-29 16:00:00 26.5 -- -- -- -- 0 1014.8 -1.4 73
2019-09-29 15:00:00 26.8 -- -- -- -- 0 1015.3 -1.4 71
2019-09-29 14:00:00 26.8 -- -- -- -- 0 1015.8 -0.9 70
2019-09-29 13:00:00 26.5 -- -- -- -- 0 1016.2 0 72
2019-09-29 12:00:00 26.3 -- -- -- -- 0 1016.7 0.8 72
2019-09-29 11:00:00 25.7 -- -- -- -- 0 1016.7 1.2 73
2019-09-29 10:00:00 24.2 -- -- -- -- 0 1016.2 0.5 80
2019-09-29 09:00:00 21.8 -- -- -- -- 0 1015.9 -0.1 88
2019-09-29 08:00:00 20.5 -- -- -- -- 0 1015.5 -0.7 90
2019-09-29 07:00:00 20.4 -- -- -- -- 0 1015.7 -0.6 92
2019-09-29 06:00:00 20.9 -- -- -- -- 0 1016 -0.8 92
2019-09-29 05:00:00 20.2 -- -- -- -- 0 1016.2 -0.7 92
2019-09-29 04:00:00 20 -- -- -- -- 0 1016.3 -0.8 92
2019-09-29 03:00:00 20.5 -- -- -- -- 0 1016.8 -0.5 91
2019-09-29 02:00:00 20.7 -- -- -- -- 0 1016.9 -0.7 91
2019-09-29 01:00:00 20.4 -- -- -- -- 0 1017.1 -0.6 90
2019-09-29 00:00:00 21.2 -- -- -- -- 0 1017.3 -0.3 88
2019-09-28 23:00:00 21.7 -- -- -- -- 0 1017.6 0.3 87
2019-09-28 22:00:00 22.4 -- -- -- -- 0 1017.7 0.3 84
2019-09-28 21:00:00 23.3 -- -- -- -- 0 1017.6 0.3 81
2019-09-28 20:00:00 23.8 -- -- -- -- 0 1017.3 -0.1 81
2019-09-28 19:00:00 25.1 -- -- -- -- 0 1017.4 -0.2 75
2019-09-28 18:00:00 26.5 -- -- -- -- 0 1017.3 -0.8 70
2019-09-28 17:00:00 26.5 -- -- -- -- 0 1017.4 -1.3 69
2019-09-28 16:00:00 26.5 -- -- -- -- 0 1017.6 -1.4 68
2019-09-28 15:00:00 26.8 -- -- -- -- 0 1018.1 -0.9 67
2019-09-28 14:00:00 27 -- -- -- -- 0 1018.7 -0.1 67
2019-09-28 13:00:00 26.9 -- -- -- -- 0 1019 0.6 69
2019-09-28 12:00:00 26.5 -- -- -- -- 0 1019 1.3 70
2019-09-28 11:00:00 25.1 -- -- -- -- 0 1018.8 1.5 78
2019-09-28 10:00:00 23.8 -- -- -- -- 0 1018.4 1.4 82
2019-09-28 09:00:00 21.3 -- -- -- -- 0 1017.7 1 90
2019-09-28 08:00:00 20.1 -- -- -- -- 0 1017.3 0.6 93
2019-09-28 07:00:00 20.1 -- -- -- -- 0 1017 0.4 93
2019-09-28 06:00:00 19.8 -- -- -- -- 0 1016.7 -0.3 92
2019-09-28 05:00:00 20.3 -- -- -- -- 0 1016.7 -0.4 91
2019-09-28 04:00:00 20.6 -- -- -- -- 0 1016.6 -0.3 91
2019-09-28 03:00:00 20.9 -- -- -- -- 0 1017 0.2 91
2019-09-28 02:00:00 21.9 -- -- -- -- 0 1017.1 0.2 88
2019-09-28 01:00:00 22.3 -- -- -- -- 0 1016.9 0.4 85
2019-09-28 00:00:00 22.5 -- -- -- -- 0 1016.8 0.7 85
2019-09-27 23:00:00 22.5 -- -- -- -- 0 1016.9 1.1 84
2019-09-27 22:00:00 23.6 -- -- -- -- 0 1016.5 0.8 82
2019-09-27 21:00:00 23.8 -- -- -- -- 0 1016.1 0.5 81
2019-09-27 20:00:00 24 -- -- -- -- 0 1015.8 0.2 80
2019-09-27 19:00:00 24.7 -- -- -- -- 0 1015.7 0 77
2019-09-27 18:00:00 26.1 -- -- -- -- 0 1015.6 -0.5 72
2019-09-27 17:00:00 26.7 -- -- -- -- 0 1015.6 -1 70
2019-09-27 16:00:00 27.1 -- -- -- -- 0 1015.7 -1.2 68
2019-09-27 15:00:00 27 -- -- -- -- 0 1016.1 -1.1 69
2019-09-27 14:00:00 27 -- -- -- -- 0 1016.6 -0.8 69
2019-09-27 13:00:00 26.8 -- -- -- -- 0 1016.9 -0.3 68
2019-09-27 12:00:00 26.3 -- -- -- -- 0 1017.2 0.4 72
2019-09-27 11:00:00 25.7 -- -- -- -- 0 1017.4 0.9 74
2019-09-27 10:00:00 24.9 -- -- -- -- 0 1017.2 1.1 79
2019-09-27 09:00:00 21.8 -- -- -- -- 0 1016.8 0.7 87
2019-09-27 08:00:00 20 -- -- -- -- 0 1016.5 0.3 91
2019-09-27 07:00:00 20.2 -- -- -- -- 0 1016.1 -0.3 88
2019-09-27 06:00:00 20.5 -- -- -- -- 0 1016.1 -0.6 88
2019-09-27 05:00:00 21 -- -- -- -- 0 1016.2 -0.8 86
2019-09-27 04:00:00 20.9 -- -- -- -- 0 1016.4 -0.7 87
2019-09-27 03:00:00 21.4 -- -- -- -- 0 1016.7 -0.6 86
2019-09-27 02:00:00 21.5 -- -- -- -- 0 1017 -0.2 85
2019-09-27 01:00:00 21.8 -- -- -- -- 0 1017.1 -0.2 83
2019-09-27 00:00:00 22.1 -- -- -- -- 0 1017.3 0.3 81
2019-09-26 23:00:00 22.4 -- -- -- -- 0 1017.2 0.7 80
2019-09-26 22:00:00 22.6 -- -- -- -- 0 1017.3 0.9 79
2019-09-26 21:00:00 23.2 -- -- -- -- 0 1017 0.8 77
2019-09-26 20:00:00 23.7 -- -- -- -- 0 1016.5 0.1 76
2019-09-26 19:00:00 24.7 -- -- -- -- 0 1016.4 -0.1 71
2019-09-26 18:00:00 25.8 -- -- -- -- 0 1016.2 -0.5 66
2019-09-26 17:00:00 26.4 -- -- -- -- 0 1016.4 -1 64
2019-09-26 16:00:00 26.7 -- -- -- -- 0 1016.5 -1.3 64
2019-09-26 15:00:00 26.1 -- -- -- -- 0 1016.7 -1.4 64
2019-09-26 14:00:00 26.1 -- -- -- -- 0 1017.4 -0.6 64
2019-09-26 13:00:00 25.9 -- -- -- -- 0 1017.8 0.2 64
2019-09-26 12:00:00 26 -- -- -- -- 0 1018.1 1.3 66
2019-09-26 11:00:00 25.1 -- -- -- -- 0 1018 1.7 69
2019-09-26 10:00:00 23.9 -- -- -- -- 0 1017.6 1.8 70
2019-09-26 09:00:00 20.7 -- -- -- -- 0 1016.8 1.3 81
2019-09-26 08:00:00 19 -- -- -- -- 0 1016.3 1.1 86
2019-09-26 07:00:00 19 -- -- -- -- 0 1015.8 0.9 85
2019-09-26 06:00:00 18.9 -- -- -- -- 0 1015.5 0.3 87
2019-09-26 05:00:00 19.3 -- -- -- -- 0 1015.2 -0.1 86
2019-09-26 04:00:00 20 -- -- -- -- 0 1014.9 -0.3 83
2019-09-26 03:00:00 20.2 -- -- -- -- 0 1015.2 0.1 84
2019-09-26 02:00:00 20 -- -- -- -- 0 1015.3 0.5 85
2019-09-26 01:00:00 20.1 -- -- -- -- 0 1015.2 0.8 84
2019-09-26 00:00:00 20.4 -- -- -- -- 0 1015.1 1.3 83
2019-09-25 23:00:00 20.7 -- -- -- -- 0 1014.8 1.6 81
2019-09-25 22:00:00 21.4 -- -- -- -- 0 1014.4 1.5 79
2019-09-25 21:00:00 22.8 -- -- -- -- 0 1013.8 1.5 76
2019-09-25 20:00:00 23.1 -- -- -- -- 0 1013.2 1.4 75
2019-09-25 19:00:00 24.1 -- -- -- -- 0 1012.9 1.2 73
2019-09-25 18:00:00 24.5 -- -- -- -- 0 1012.3 0.7 73
2019-09-25 17:00:00 25 -- -- -- -- 0 1011.8 0.3 73
2019-09-25 16:00:00 26.2 -- -- -- -- 0 1011.7 0.1 73
2019-09-25 15:00:00 27.1 -- -- -- -- 0 1011.6 -0.3 71
2019-09-25 14:00:00 26.3 -- -- -- -- 0 1011.5 0 73
2019-09-25 13:00:00 26.6 -- -- -- -- -- 1011.6 0.6 76
2019-09-25 12:00:00 27.2 -- -- -- -- 0 1011.9 1.1 74
2019-09-25 11:00:00 26.7 -- -- -- -- 0 1011.5 0.8 77
2019-09-25 10:00:00 24.1 -- -- -- -- 0 1011 0.4 85
2019-09-25 09:00:00 22.5 -- -- -- -- 0 1010.8 0 90
2019-09-25 08:00:00 21.3 -- -- -- -- 0 1010.7 -0.1 93
2019-09-25 07:00:00 21.4 -- -- -- -- 0 1010.6 -0.5 93
2019-09-25 06:00:00 20.4 -- -- -- -- 0 1010.8 -0.6 92
2019-09-25 05:00:00 21.3 -- -- -- -- 0 1010.8 -0.9 92
2019-09-25 04:00:00 21.5 -- -- -- -- 0 1011.1 -1.1 89
2019-09-25 03:00:00 21.8 -- -- -- -- 0 1011.4 -1 91
2019-09-25 02:00:00 22 -- -- -- -- 0 1011.7 -0.8 89
2019-09-25 01:00:00 22.5 -- -- -- -- 0 1012.2 -0.5 88
2019-09-25 00:00:00 22.5 -- -- -- -- 0 1012.4 -0.1 86
2019-09-24 23:00:00 22.8 -- -- -- -- 0 1012.5 0.2 84
2019-09-24 22:00:00 23.1 -- -- -- -- 0 1012.7 0.4 81
2019-09-24 21:00:00 23.4 -- -- -- -- 0 1012.5 0.2 82
2019-09-24 20:00:00 24 -- -- -- -- 0 1012.3 -0.5 80
2019-09-24 19:00:00 25 -- -- -- -- 0 1012.3 -0.7 75
2019-09-24 18:00:00 26.1 -- -- -- -- 0 1012.3 -1.3 69
2019-09-24 17:00:00 27.2 -- -- -- -- 0 1012.8 -1.5 66
2019-09-24 16:00:00 27.5 -- -- -- -- 0 1013 -1.8 68
2019-09-24 15:00:00 27.5 -- -- -- -- 0 1013.6 -1.4 61
2019-09-24 14:00:00 27.6 -- -- -- -- 0 1014.3 -0.9 65
2019-09-24 13:00:00 27.6 -- -- -- -- 0 1014.8 -0.4 63
2019-09-24 12:00:00 27.1 -- -- -- -- 0 1015 0.2 62
2019-09-24 11:00:00 25.9 -- -- -- -- -- 1015.2 0.4 66
2019-09-24 10:00:00 24.2 -- -- -- -- 0 1015.2 0.6 78
2019-09-24 09:00:00 22.6 -- -- -- -- 0 1014.8 0.2 85
2019-09-24 08:00:00 20.9 -- -- -- -- 0 1014.8 -0.3 89
2019-09-24 07:00:00 21.3 -- -- -- -- 0 1014.6 -0.8 87
2019-09-24 06:00:00 21.2 -- -- -- -- 0 1014.6 -1.4 88
2019-09-24 05:00:00 21.5 -- -- -- -- 0 1015.1 -1.4 85
2019-09-24 04:00:00 21.5 -- -- -- -- 0 1015.4 -1.1 86
2019-09-24 03:00:00 20.9 -- -- -- -- 0 1016 -0.8 87
2019-09-24 02:00:00 20.9 -- -- -- -- 0 1016.5 -0.3 85
2019-09-24 01:00:00 21.3 -- -- -- -- 0 1016.5 -0.4 84
2019-09-24 00:00:00 21.3 -- -- -- -- 0 1016.8 0.3 83
2019-09-23 23:00:00 22.1 -- -- -- -- 0 1016.8 1 80
2019-09-23 22:00:00 22.2 -- -- -- -- 0 1016.9 1.1 79
2019-09-23 21:00:00 22.8 -- -- -- -- 0 1016.5 0.8 75
2019-09-23 20:00:00 23.2 -- -- -- -- 0 1015.8 0.1 73
2019-09-23 19:00:00 24.1 -- -- -- -- 0 1015.8 -0.2 70
2019-09-23 18:00:00 24.7 -- -- -- -- 0 1015.7 -0.3 68
2019-09-23 17:00:00 25.3 -- -- -- -- 0 1015.7 -0.4 66
2019-09-23 16:00:00 25.3 -- -- -- -- 0 1016 -0.4 66
2019-09-23 15:00:00 25.3 -- -- -- -- 0 1016 -0.9 65
2019-09-23 14:00:00 25.9 -- -- -- -- 0 1016.1 -0.9 63
2019-09-23 13:00:00 24.9 -- -- -- -- 0 1016.4 0 65
2019-09-23 12:00:00 24.7 -- -- -- -- 0 1016.9 1.2 67
2019-09-23 11:00:00 24.1 -- -- -- -- 0 1017 2.1 66
2019-09-23 10:00:00 23.4 -- -- -- -- 0 1016.4 2.3 71
2019-09-23 09:00:00 22.8 -- -- -- -- 0 1015.7 2.3 75
2019-09-23 08:00:00 22.7 -- -- -- -- 0 1014.9 1.8 79
2019-09-23 07:00:00 22.9 -- -- -- -- 0 1014.1 0.9 85
2019-09-23 06:00:00 21.8 -- -- -- -- 0 1013.4 0.3 92
2019-09-23 05:00:00 22.2 -- -- -- -- 0 1013.1 0.1 91
2019-09-23 04:00:00 22.6 -- -- -- -- 0 1013.2 0.4 89
2019-09-23 03:00:00 23 -- -- -- -- 0 1013.1 0.4 89
2019-09-23 02:00:00 22.9 -- -- -- -- 0 1013 0.4 88
2019-09-23 01:00:00 23 -- -- -- -- 0 1012.8 0.8 88
2019-09-23 00:00:00 23.2 -- -- -- -- 0 1012.7 1.3 89
2019-09-22 23:00:00 23.3 -- -- -- -- 0 1012.6 1.7 87
2019-09-22 22:00:00 23.4 -- -- -- -- 0 1012 1.3 85
2019-09-22 21:00:00 23.8 -- -- -- -- 0 1011.4 1.1 82
2019-09-22 20:00:00 24.4 -- -- -- -- 0 1010.9 0.9 80
2019-09-22 19:00:00 25.7 -- -- -- -- 0 1010.7 0.6 70
2019-09-22 18:00:00 26.5 -- -- -- -- 0 1010.3 0.2 67
2019-09-22 17:00:00 26.6 -- -- -- -- 0 1010 -0.4 76
2019-09-22 16:00:00 27.1 -- -- -- -- 0 1010.1 -0.8 75
2019-09-22 15:00:00 27.3 -- -- -- -- 0 1010.1 -0.9 76
2019-09-22 14:00:00 28.8 -- -- -- -- 0 1010.4 -0.4 65
2019-09-22 13:00:00 28 -- -- -- -- 0 1010.9 0.2 67
2019-09-22 12:00:00 26.7 -- -- -- -- 0 1011 0.6 70
2019-09-22 11:00:00 26.5 -- -- -- -- 0 1010.8 0.8 73
2019-09-22 10:00:00 25.5 -- -- -- -- 0 1010.7 1.1 79
2019-09-22 09:00:00 23.9 -- -- -- -- 0 1010.4 1 84
2019-09-22 08:00:00 23 -- -- -- -- 0 1010 0.7 85
2019-09-22 07:00:00 23.2 -- -- -- -- 0 1009.6 0.2 87
2019-09-22 06:00:00 23.3 -- -- -- -- 0 1009.4 -0.1 88
2019-09-22 05:00:00 23.4 -- -- -- -- 0 1009.3 0.5 88
2019-09-22 04:00:00 23.5 -- -- -- -- 0 1009.4 0 87
2019-09-22 03:00:00 23.7 -- -- -- -- 0 1009.5 0 87
2019-09-22 02:00:00 23.6 -- -- -- -- 0 1008.8 -0.9 89
2019-09-22 01:00:00 23.8 -- -- -- -- 0 1009.4 0.2 88
2019-09-22 00:00:00 24 -- -- -- -- 0 1009.5 1 86
2019-09-21 23:00:00 24.5 -- -- -- -- 0 1009.7 1.4 84
2019-09-21 22:00:00 24.9 -- -- -- -- 0 1009.2 1 82
2019-09-21 21:00:00 25.3 -- -- -- -- 0 1008.5 0.4 81
2019-09-21 20:00:00 25.5 -- -- -- -- 0 1008.3 0.5 88
2019-09-21 19:00:00 26.9 -- -- -- -- 0 1008.2 0.3 76
2019-09-21 18:00:00 28.3 -- -- -- -- 0 1008.1 0.2 65
2019-09-21 17:00:00 28.1 -- -- -- -- 0 1007.8 -0.9 71
2019-09-21 16:00:00 30.1 -- -- -- -- 0 1007.9 -2.7 53
2019-09-21 15:00:00 30 -- -- -- -- 0 1007.9 -2.6 68
2019-09-21 14:00:00 28.3 -- -- -- -- 0 1008.7 -1.1 80
2019-09-21 13:00:00 25.9 -- -- -- -- 0 1010.6 0.6 88
2019-09-21 12:00:00 25.7 -- -- -- -- 0 1010.5 -0.9 89
2019-09-21 11:00:00 25.7 -- -- -- -- 0 1009.8 -0.2 88
2019-09-21 10:00:00 25.2 -- -- -- -- 0.2 1010 -1.4 90
2019-09-21 09:00:00 25 -- -- -- -- 0 1011.4 -0.1 89
2019-09-21 08:00:00 24.7 -- -- -- -- 0.2 1010 -1.1 89
2019-09-21 07:00:00 24.9 -- -- -- -- 0 1011.4 0.1 87
2019-09-21 06:00:00 24.6 -- -- -- -- 0 1011.5 0.2 87
2019-09-21 05:00:00 24.8 -- -- -- -- 0 1011.1 -1.2 85
2019-09-21 04:00:00 24.8 -- -- -- -- 0 1011.3 -2.2 86
2019-09-21 03:00:00 24.7 -- -- -- -- 0 1011.3 -2 85
2019-09-21 02:00:00 24.5 -- -- -- -- 0 1012.3 -1.6 84
2019-09-21 01:00:00 24.6 -- -- -- -- 0 1013.5 -0.1 83
2019-09-21 00:00:00 24.5 -- -- -- -- 0 1013.3 0.3 84
2019-09-20 23:00:00 24.5 -- -- -- -- 0 1013.9 -0.1 82
2019-09-20 22:00:00 24.4 -- -- -- -- 0 1013.6 -1.4 82
2019-09-20 21:00:00 24.3 -- -- -- -- 0 1013 -1.4 82
2019-09-20 20:00:00 24.4 -- -- -- -- 0 1014 -0.3 80
2019-09-20 19:00:00 24.7 -- -- -- -- 0 1015 0.2 79
2019-09-20 18:00:00 25 -- -- -- -- 0 1014.4 -0.7 77
2019-09-20 17:00:00 25.5 -- -- -- -- 0 1014.3 -1.4 75
2019-09-20 16:00:00 25.5 -- -- -- -- 0 1014.8 -1.1 75
2019-09-20 15:00:00 26 -- -- -- -- 0 1015.1 -1.2 73
2019-09-20 14:00:00 26.3 -- -- -- -- 0 1015.7 -0.7 73
2019-09-20 13:00:00 26.1 -- -- -- -- 0 1015.9 -0.3 73
2019-09-20 12:00:00 25.9 -- -- -- -- 0 1016.3 0.5 75
2019-09-20 11:00:00 25.2 -- -- -- -- 0 1016.4 1 77
2019-09-20 10:00:00 25.2 -- -- -- -- 0 1016.2 1.3 75
2019-09-20 09:00:00 23.8 -- -- -- -- 0 1015.8 1.1 81
2019-09-20 08:00:00 21.5 -- -- -- -- 0 1015.4 0.4 91
2019-09-20 07:00:00 21.1 -- -- -- -- 0 1014.9 -0.2 92
2019-09-20 06:00:00 21.2 -- -- -- -- 0 1014.7 -0.5 92
2019-09-20 05:00:00 21.6 -- -- -- -- 0 1015 -0.5 91
2019-09-20 04:00:00 21.8 -- -- -- -- 0 1015.1 -0.5 91
2019-09-20 03:00:00 22.1 -- -- -- -- 0 1015.2 -0.4 90
2019-09-20 02:00:00 22.2 -- -- -- -- 0 1015.5 0.1 89
2019-09-20 01:00:00 22.4 -- -- -- -- 0 1015.6 0.2 89
2019-09-20 00:00:00 23.9 -- -- -- -- 0 1015.6 0.9 84
2019-09-19 23:00:00 24 -- -- -- -- 0 1015.4 1.2 83
2019-09-19 22:00:00 24.2 -- -- -- -- 0 1015.4 1.3 83
2019-09-19 21:00:00 24.3 -- -- -- -- 0 1014.7 0.8 83
2019-09-19 20:00:00 24.5 -- -- -- -- 0 1014.2 0.2 81
2019-09-19 19:00:00 25.3 -- -- -- -- 0 1014.1 -0.1 77
2019-09-19 18:00:00 26.3 -- -- -- -- 0 1013.9 -0.5 75
2019-09-19 17:00:00 27 -- -- -- -- 0 1014 -0.8 71
2019-09-19 16:00:00 26.9 -- -- -- -- 0 1014.2 -0.7 73
2019-09-19 15:00:00 27.1 -- -- -- -- 0 1014.4 -0.6 71
2019-09-19 14:00:00 27.1 -- -- -- -- 0 1014.8 0.2 72
2019-09-19 13:00:00 26.8 -- -- -- -- 0 1014.9 0.9 72
2019-09-19 12:00:00 26.6 -- -- -- -- 0 1015 1.4 75
2019-09-19 11:00:00 26.1 -- -- -- -- 0 1014.6 1.1 75
2019-09-19 10:00:00 25.1 -- -- -- -- 0 1014 1 79
2019-09-19 09:00:00 22.3 -- -- -- -- 0 1013.6 0.4 89
2019-09-19 08:00:00 21.2 -- -- -- -- 0 1013.5 0.2 92
2019-09-19 07:00:00 20.9 -- -- -- -- 0 1013 -0.8 92
2019-09-19 06:00:00 21.3 -- -- -- -- 0 1013.2 -0.3 91
2019-09-19 05:00:00 21.7 -- -- -- -- 0 1013.3 -0.3 91
2019-09-19 04:00:00 21.7 -- -- -- -- 0 1013.8 0.4 89
2019-09-19 03:00:00 20.9 -- -- -- -- 0 1013.5 0 88
2019-09-19 02:00:00 21.4 -- -- -- -- 0 1013.6 0.2 83
2019-09-19 01:00:00 21.5 -- -- -- -- 0 1013.4 0 84
2019-09-19 00:00:00 22.1 -- -- -- -- 0 1013.5 0.5 84
2019-09-18 23:00:00 22.7 -- -- -- -- 0 1013.4 0.8 87
2019-09-18 22:00:00 23.9 -- -- -- -- 0 1013.4 1.2 85
2019-09-18 21:00:00 24.2 -- -- -- -- 0 1013 0.7 83
2019-09-18 20:00:00 24.5 -- -- -- -- 0 1012.6 0.2 80
2019-09-18 19:00:00 26.1 -- -- -- -- 0 1012.2 -0.4 72
2019-09-18 18:00:00 27.1 -- -- -- -- 0 1012.3 -0.5 71
2019-09-18 17:00:00 26.8 -- -- -- -- 0 1012.4 -0.9 70
2019-09-18 16:00:00 27.6 -- -- -- -- 0 1012.6 -1 69
2019-09-18 15:00:00 27.9 -- -- -- -- 0 1012.8 -1 68
2019-09-18 14:00:00 27.6 -- -- -- -- 0 1013.3 -0.1 69
2019-09-18 13:00:00 27.5 -- -- -- -- 0 1013.6 1.1 71
2019-09-18 12:00:00 26.6 -- -- -- -- 0 1013.8 1.7 74
2019-09-18 11:00:00 25.3 -- -- -- -- 0 1013.4 1.9 78
2019-09-18 10:00:00 24.2 -- -- -- -- 0 1012.5 1.4 84
2019-09-18 09:00:00 21.9 -- -- -- -- 0 1012.1 1.1 92
2019-09-18 08:00:00 20.5 -- -- -- -- 0 1011.5 0.5 93
2019-09-18 07:00:00 20.4 -- -- -- -- 0 1011.1 -0.5 93
2019-09-18 06:00:00 20.6 -- -- -- -- 0 1011 -1.3 93
2019-09-18 05:00:00 21 -- -- -- -- 0 1011 -2 94
2019-09-18 04:00:00 22 -- -- -- -- 0 1011.6 -1.7 91
2019-09-18 03:00:00 22.2 -- -- -- -- 0 1012.3 -0.8 90
2019-09-18 02:00:00 22.8 -- -- -- -- 0 1013 -0.2 88
2019-09-18 01:00:00 23.3 -- -- -- -- 0 1013.3 0.4 88
2019-09-18 00:00:00 23.6 -- -- -- -- 0 1013.1 0.7 88
2019-09-17 23:00:00 23.7 -- -- -- -- 0 1013.2 1.6 88
2019-09-17 22:00:00 24.2 -- -- -- -- 0 1012.9 1.4 86
2019-09-17 21:00:00 24.5 -- -- -- -- 0 1012.4 0.1 83